Time;durP1;ratioP1;P1;durP2;ratioP2;P2;SDS_P1;SDS_P2;PMS_P1;PMS_P2;Temp;Humidity;BMP_temperature;BMP_pressure;BME280_temperature;BME280_humidity;BME280_pressure;Samples;Min_cycle;Max_cycle;Signal;HPM_P1;HPM_P2
2021/05/17 00:00:36;;;;;;;1.80;0.90;;;;;;;;;;3619216;39;20039;-64
2021/05/17 00:03:02;;;;;;;2.60;0.90;;;;;;;;;;3617233;39;20042;-65
2021/05/17 00:05:29;;;;;;;2.08;0.88;;;;;;;;;;3618761;39;20401;-64
2021/05/17 00:07:55;;;;;;;2.80;1.10;;;;;;;;;;3617802;39;20094;-65
2021/05/17 00:10:21;;;;;;;2.20;1.00;;;;;;;;;;3618238;39;20039;-64
2021/05/17 00:12:46;;;;;;;5.63;1.10;;;;;;;;;;3616443;39;20047;-65
2021/05/17 00:15:15;;;;;;;4.88;1.23;;;;;;;;;;3618583;39;20039;-64
2021/05/17 00:17:41;;;;;;;1.75;0.80;;;;;;;;;;3618583;39;20050;-64
2021/05/17 00:20:08;;;;;;;5.63;1.52;;;;;;;;;;3608214;39;20035;-64
2021/05/17 00:22:34;;;;;;;6.15;1.20;;;;;;;;;;3617638;39;20053;-64
2021/05/17 00:25:00;;;;;;;1.88;0.90;;;;;;;;;;3619644;39;20058;-65
2021/05/17 00:27:27;;;;;;;2.38;1.00;;;;;;;;;;3618373;39;20370;-64
2021/05/17 00:29:52;;;;;;;3.40;1.10;;;;;;;;;;3616952;39;20141;-64
2021/05/17 00:32:18;;;;;;;1.60;0.68;;;;;;;;;;3618555;39;20039;-64
2021/05/17 00:34:44;;;;;;;3.17;1.13;;;;;;;;;;3618039;39;20047;-64
2021/05/17 00:37:10;;;;;;;2.13;0.95;;;;;;;;;;3617744;39;20019;-64
2021/05/17 00:39:36;;;;;;;2.65;0.90;;;;;;;;;;3607910;39;20042;-64
2021/05/17 00:42:02;;;;;;;0.90;0.55;;;;;;;;;;3619289;39;20755;-64
2021/05/17 00:44:28;;;;;;;2.17;0.80;;;;;;;;;;3617689;39;20534;-64
2021/05/17 00:46:54;;;;;;;1.40;0.77;;;;;;;;;;3617387;39;20038;-65
2021/05/17 00:49:19;;;;;;;2.70;0.70;;;;;;;;;;3618769;39;20043;-64
2021/05/17 00:51:45;;;;;;;1.20;0.60;;;;;;;;;;3618610;39;20024;-65
2021/05/17 00:54:10;;;;;;;2.97;0.77;;;;;;;;;;3617831;39;20046;-64
2021/05/17 00:56:37;;;;;;;1.13;0.63;;;;;;;;;;3617748;39;20290;-64
2021/05/17 00:59:03;;;;;;;5.10;1.23;;;;;;;;;;3618866;39;20385;-64
2021/05/17 01:01:28;;;;;;;2.63;0.82;;;;;;;;;;3618721;39;20035;-64
2021/05/17 01:03:54;;;;;;;0.98;0.50;;;;;;;;;;3618572;39;20079;-64
2021/05/17 01:06:22;;;;;;;2.33;1.10;;;;;;;;;;3617132;39;20034;-64
2021/05/17 01:09:07;;;;;;;2.38;0.80;;;;;;;;;;3617948;39;20035;-64
2021/05/17 01:11:33;;;;;;;2.08;1.00;;;;;;;;;;3619224;39;20082;-64
2021/05/17 01:14:03;;;;;;;1.73;0.77;;;;;;;;;;3617744;39;20074;-64
2021/05/17 01:16:28;;;;;;;0.85;0.47;;;;;;;;;;3617126;39;20027;-64
2021/05/17 01:18:54;;;;;;;1.17;0.63;;;;;;;;;;3618427;39;20028;-64
2021/05/17 01:21:22;;;;;;;1.27;0.70;;;;;;;;;;3617329;39;20063;-64
2021/05/17 01:23:55;;;;;;;0.95;0.50;;;;;;;;;;3616046;39;20038;-64
2021/05/17 01:26:25;;;;;;;1.02;0.60;;;;;;;;;;3617124;39;20020;-64
2021/05/17 01:28:54;;;;;;;1.70;0.60;;;;;;;;;;3617826;39;20052;-64
2021/05/17 01:31:20;;;;;;;1.95;0.70;;;;;;;;;;3616690;39;20050;-64
2021/05/17 01:33:47;;;;;;;1.48;0.60;;;;;;;;;;3616863;39;20027;-65
2021/05/17 01:36:14;;;;;;;0.90;0.50;;;;;;;;;;3618134;39;20036;-65
2021/05/17 01:38:45;;;;;;;3.80;1.33;;;;;;;;;;3617256;39;20042;-64
2021/05/17 01:41:13;;;;;;;1.30;0.60;;;;;;;;;;3617733;39;20122;-65
2021/05/17 01:43:44;;;;;;;1.25;0.60;;;;;;;;;;3617291;39;20031;-64
2021/05/17 01:46:16;;;;;;;4.00;0.60;;;;;;;;;;3617372;39;20031;-65
2021/05/17 01:48:43;;;;;;;4.10;0.77;;;;;;;;;;3608250;39;20342;-65
2021/05/17 01:51:17;;;;;;;0.98;0.52;;;;;;;;;;3617322;39;20031;-65
2021/05/17 01:53:44;;;;;;;1.80;0.80;;;;;;;;;;3617547;39;20024;-65
2021/05/17 01:56:10;;;;;;;2.13;0.80;;;;;;;;;;3619753;39;20035;-65
2021/05/17 01:58:37;;;;;;;3.03;0.65;;;;;;;;;;3617010;39;20386;-65
2021/05/17 02:01:08;;;;;;;3.50;1.23;;;;;;;;;;3616401;39;20054;-66
2021/05/17 02:03:36;;;;;;;1.98;0.85;;;;;;;;;;3616946;39;20042;-66
2021/05/17 02:06:03;;;;;;;1.05;0.60;;;;;;;;;;3617170;39;20047;-66
2021/05/17 02:08:30;;;;;;;1.63;0.68;;;;;;;;;;3616251;39;20035;-66
2021/05/17 02:10:56;;;;;;;1.25;0.60;;;;;;;;;;3615895;39;20083;-66
2021/05/17 02:13:23;;;;;;;2.03;0.85;;;;;;;;;;3618085;39;20043;-66
2021/05/17 02:15:49;;;;;;;1.60;0.70;;;;;;;;;;3616911;39;20038;-65
2021/05/17 02:18:17;;;;;;;3.58;0.88;;;;;;;;;;3619658;39;20031;-65
2021/05/17 02:20:42;;;;;;;1.65;0.70;;;;;;;;;;3607271;39;20038;-65
2021/05/17 02:23:10;;;;;;;1.85;0.95;;;;;;;;;;3617753;39;20039;-65
2021/05/17 02:25:41;;;;;;;3.35;0.80;;;;;;;;;;3618165;39;20551;-65
2021/05/17 02:28:07;;;;;;;2.20;0.93;;;;;;;;;;3606456;39;20140;-65
2021/05/17 02:30:33;;;;;;;1.85;0.77;;;;;;;;;;3615626;39;20043;-65
2021/05/17 02:32:58;;;;;;;1.48;0.77;;;;;;;;;;3614151;39;20043;-65
2021/05/17 02:35:24;;;;;;;1.73;0.77;;;;;;;;;;3617764;39;20047;-65
2021/05/17 02:37:50;;;;;;;3.38;1.05;;;;;;;;;;3619707;39;20366;-65
2021/05/17 02:40:16;;;;;;;2.75;0.95;;;;;;;;;;3618718;39;20048;-65
2021/05/17 02:42:46;;;;;;;3.28;0.88;;;;;;;;;;3618165;39;20031;-65
2021/05/17 02:45:14;;;;;;;2.90;1.00;;;;;;;;;;3619309;39;20074;-65
2021/05/17 02:47:40;;;;;;;2.95;1.17;;;;;;;;;;3617638;39;20491;-65
2021/05/17 02:50:09;;;;;;;3.35;1.35;;;;;;;;;;3607619;39;20058;-65
2021/05/17 02:52:35;;;;;;;2.92;1.42;;;;;;;;;;3619404;39;20051;-65
2021/05/17 02:55:03;;;;;;;2.53;1.15;;;;;;;;;;3620748;39;20054;-65
2021/05/17 02:57:46;;;;;;;1.73;0.90;;;;;;;;;;3618292;39;20035;-65
2021/05/17 03:00:12;;;;;;;1.85;0.88;;;;;;;;;;3618678;39;20039;-65
2021/05/17 03:03:05;;;;;;;2.45;1.20;;;;;;;;;;3618571;39;20054;-65
2021/05/17 03:05:33;;;;;;;3.40;1.25;;;;;;;;;;3619066;39;20071;-65
2021/05/17 03:08:10;;;;;;;2.65;1.23;;;;;;;;;;3618513;39;20047;-65
2021/05/17 03:10:41;;;;;;;1.73;1.08;;;;;;;;;;3607873;39;20047;-65
2021/05/17 03:13:11;;;;;;;;;;;;;;;;;;3618275;39;20362;-65
2021/05/17 03:15:41;;;;;;;4.22;1.02;;;;;;;;;;3617757;39;19927;-65
2021/05/17 03:18:09;;;;;;;2.47;1.10;;;;;;;;;;3617141;39;20047;-65
2021/05/17 03:20:35;;;;;;;2.92;1.10;;;;;;;;;;3619590;39;20043;-65
2021/05/17 03:23:01;;;;;;;3.35;1.52;;;;;;;;;;3616615;39;20051;-65
2021/05/17 03:25:31;;;;;;;2.85;1.13;;;;;;;;;;3617859;39;20325;-65
2021/05/17 03:27:57;;;;;;;3.17;1.17;;;;;;;;;;3617885;39;20789;-65
2021/05/17 03:30:23;;;;;;;1.48;0.90;;;;;;;;;;3619639;39;20027;-64
2021/05/17 03:32:48;;;;;;;2.35;0.98;;;;;;;;;;3619001;39;20033;-65
2021/05/17 03:35:14;;;;;;;3.55;1.40;;;;;;;;;;3618307;39;20027;-65
2021/05/17 03:37:40;;;;;;;4.60;1.67;;;;;;;;;;3621496;39;20039;-65
2021/05/17 03:40:06;;;;;;;4.15;1.80;;;;;;;;;;3618209;39;20120;-65
2021/05/17 03:42:31;;;;;;;3.72;1.30;;;;;;;;;;3617601;39;20120;-65
2021/05/17 03:44:56;;;;;;;2.60;1.20;;;;;;;;;;3618434;39;20469;-65
2021/05/17 03:47:22;;;;;;;6.13;1.40;;;;;;;;;;3617869;39;20043;-65
2021/05/17 03:49:47;;;;;;;4.72;1.58;;;;;;;;;;3619565;39;20039;-65
2021/05/17 03:52:13;;;;;;;5.07;1.50;;;;;;;;;;3619591;39;20120;-65
2021/05/17 03:54:38;;;;;;;3.35;1.75;;;;;;;;;;3617720;39;20054;-65
2021/05/17 03:57:04;;;;;;;7.20;1.48;;;;;;;;;;3620008;39;20124;-65
2021/05/17 03:59:31;;;;;;;2.15;1.20;;;;;;;;;;3617929;39;20047;-63
2021/05/17 04:01:57;;;;;;;3.00;1.48;;;;;;;;;;3619409;39;20591;-65
2021/05/17 04:04:24;;;;;;;4.30;1.20;;;;;;;;;;3620065;39;20061;-66
2021/05/17 04:06:58;;;;;;;5.32;2.08;;;;;;;;;;3619901;39;20391;-65
2021/05/17 04:14:52;;;;;;;2.85;1.40;;;;;;;;;;3618671;39;20066;-64
2021/05/17 04:17:17;;;;;;;2.63;1.40;;;;;;;;;;3618825;39;20058;-65
2021/05/17 04:19:43;;;;;;;4.05;1.67;;;;;;;;;;3617958;39;20035;-65
2021/05/17 04:22:08;;;;;;;6.22;1.80;;;;;;;;;;3606952;39;20039;-65
2021/05/17 04:24:33;;;;;;;7.32;1.65;;;;;;;;;;3618937;39;20051;-66
2021/05/17 04:27:00;;;;;;;5.72;1.60;;;;;;;;;;3618305;39;20373;-64
2021/05/17 04:29:26;;;;;;;4.15;1.40;;;;;;;;;;3617379;39;20039;-65
2021/05/17 04:31:52;;;;;;;5.30;1.77;;;;;;;;;;3616332;39;20301;-66
2021/05/17 04:34:18;;;;;;;3.42;1.48;;;;;;;;;;3617003;39;20035;-65
2021/05/17 04:36:43;;;;;;;5.50;1.52;;;;;;;;;;3618051;39;20038;-65
2021/05/17 04:39:09;;;;;;;6.25;1.52;;;;;;;;;;3617804;39;20039;-64
2021/05/17 04:41:34;;;;;;;4.60;1.25;;;;;;;;;;3617713;39;20131;-65
2021/05/17 04:44:00;;;;;;;3.47;1.52;;;;;;;;;;3615432;39;20043;-65
2021/05/17 04:46:25;;;;;;;4.57;1.70;;;;;;;;;;3617058;39;20038;-67
2021/05/17 04:48:51;;;;;;;6.50;1.80;;;;;;;;;;3617296;39;20027;-66
2021/05/17 04:51:18;;;;;;;3.42;1.42;;;;;;;;;;3618329;39;20267;-66
2021/05/17 04:53:43;;;;;;;4.97;1.60;;;;;;;;;;3616570;39;20027;-66
2021/05/17 04:56:09;;;;;;;2.25;1.15;;;;;;;;;;3618600;39;20069;-66
2021/05/17 04:58:34;;;;;;;5.95;1.40;;;;;;;;;;3615755;39;20047;-66
2021/05/17 05:01:00;;;;;;;5.40;1.35;;;;;;;;;;3615726;39;20063;-67
2021/05/17 05:03:25;;;;;;;2.63;1.17;;;;;;;;;;3616374;39;20067;-67
2021/05/17 05:05:50;;;;;;;2.60;1.17;;;;;;;;;;3618089;39;20127;-67
2021/05/17 05:08:16;;;;;;;2.90;1.10;;;;;;;;;;3617530;39;20054;-66
2021/05/17 05:10:41;;;;;;;4.55;1.58;;;;;;;;;;3607194;39;20036;-66
2021/05/17 05:13:07;;;;;;;4.15;1.38;;;;;;;;;;3618983;39;20463;-66
2021/05/17 05:15:32;;;;;;;8.68;1.25;;;;;;;;;;3606601;39;20047;-66
2021/05/17 05:17:58;;;;;;;3.15;1.15;;;;;;;;;;3617498;39;20071;-66
2021/05/17 05:20:23;;;;;;;2.63;1.23;;;;;;;;;;3617986;39;20127;-67
2021/05/17 05:22:48;;;;;;;4.93;1.27;;;;;;;;;;3609320;39;20051;-66
2021/05/17 05:25:15;;;;;;;3.50;1.30;;;;;;;;;;3615964;39;20059;-67
2021/05/17 05:27:49;;;;;;;3.08;1.63;;;;;;;;;;3616385;39;20062;-68
2021/05/17 05:30:25;;;;;;;2.80;1.05;;;;;;;;;;3617776;39;20060;-66
2021/05/17 05:32:55;;;;;;;10.95;1.70;;;;;;;;;;3614575;39;20257;-68
2021/05/17 05:35:21;;;;;;;3.85;1.25;;;;;;;;;;3616440;39;20031;-68
2021/05/17 05:37:46;;;;;;;2.58;1.10;;;;;;;;;;3618935;39;20031;-68
2021/05/17 05:40:12;;;;;;;4.57;1.15;;;;;;;;;;3615117;39;20079;-68
2021/05/17 05:42:38;;;;;;;3.85;1.38;;;;;;;;;;3605722;39;20274;-68
2021/05/17 05:45:09;;;;;;;6.35;1.30;;;;;;;;;;3617603;39;20036;-68
2021/05/17 05:47:35;;;;;;;3.25;1.23;;;;;;;;;;3616327;39;20047;-68
2021/05/17 05:50:00;;;;;;;4.18;1.75;;;;;;;;;;3613589;39;20039;-68
2021/05/17 05:52:26;;;;;;;4.40;1.45;;;;;;;;;;3615391;39;20116;-68
2021/05/17 05:54:51;;;;;;;4.03;1.13;;;;;;;;;;3616107;39;20160;-68
2021/05/17 05:57:17;;;;;;;2.70;1.10;;;;;;;;;;3618680;39;20452;-68
2021/05/17 05:59:43;;;;;;;8.15;1.27;;;;;;;;;;3614553;39;20362;-68
2021/05/17 06:02:09;;;;;;;2.20;1.05;;;;;;;;;;3615700;39;20042;-68
2021/05/17 06:04:34;;;;;;;2.85;1.20;;;;;;;;;;3615850;39;20032;-68
2021/05/17 06:07:00;;;;;;;2.33;1.00;;;;;;;;;;3614640;39;20058;-67
2021/05/17 06:09:25;;;;;;;5.00;1.23;;;;;;;;;;3615418;39;20035;-67
2021/05/17 06:11:51;;;;;;;3.58;1.20;;;;;;;;;;3616047;39;20036;-67
2021/05/17 06:14:17;;;;;;;8.63;1.52;;;;;;;;;;3618161;39;20031;-68
2021/05/17 06:16:42;;;;;;;2.30;1.08;;;;;;;;;;3617766;39;20046;-68
2021/05/17 06:19:08;;;;;;;2.08;1.20;;;;;;;;;;3618537;39;20031;-68
2021/05/17 06:21:34;;;;;;;3.42;1.63;;;;;;;;;;3618593;39;20061;-68
2021/05/17 06:24:00;;;;;;;4.95;1.40;;;;;;;;;;3618529;39;20031;-69
2021/05/17 06:26:27;;;;;;;4.85;1.20;;;;;;;;;;3620459;39;20334;-68
2021/05/17 06:28:54;;;;;;;3.47;1.33;;;;;;;;;;3609544;39;20023;-69
2021/05/17 06:31:21;;;;;;;3.72;1.45;;;;;;;;;;3617046;39;20115;-68
2021/05/17 06:33:47;;;;;;;3.42;1.63;;;;;;;;;;3617341;39;20057;-68
2021/05/17 06:36:15;;;;;;;1.77;0.93;;;;;;;;;;3619434;39;20035;-69
2021/05/17 06:38:40;;;;;;;4.93;1.25;;;;;;;;;;3617054;39;20043;-69
2021/05/17 06:41:10;;;;;;;2.63;1.27;;;;;;;;;;3617507;39;20124;-68
2021/05/17 06:43:37;;;;;;;4.68;1.70;;;;;;;;;;3620080;39;20031;-68
2021/05/17 06:46:04;;;;;;;2.55;1.10;;;;;;;;;;3618967;39;20034;-68
2021/05/17 06:48:29;;;;;;;3.60;1.40;;;;;;;;;;3608766;39;20091;-68
2021/05/17 06:50:55;;;;;;;2.60;0.95;;;;;;;;;;3616131;39;20035;-68
2021/05/17 06:53:22;;;;;;;2.58;1.10;;;;;;;;;;3617824;39;20063;-68
2021/05/17 06:58:16;;;;;;;3.95;1.20;;;;;;;;;;3616615;39;20131;-68
2021/05/17 07:00:42;;;;;;;9.07;1.30;;;;;;;;;;3606537;39;20047;-68
2021/05/17 07:03:09;;;;;;;6.70;1.35;;;;;;;;;;3618985;39;20123;-68
2021/05/17 07:05:36;;;;;;;3.42;1.25;;;;;;;;;;3618043;39;20086;-68
2021/05/17 07:13:17;;;;;;;2.58;1.20;;;;;;;;;;3620280;39;20043;-68
2021/05/17 07:15:43;;;;;;;4.25;1.30;;;;;;;;;;3620611;39;20410;-68
2021/05/17 07:18:09;;;;;;;3.95;1.73;;;;;;;;;;3615373;39;20040;-68
2021/05/17 07:25:52;;;;;;;2.75;1.10;;;;;;;;;;3615237;39;20039;-68
2021/05/17 07:28:17;;;;;;;12.65;2.08;;;;;;;;;;3616139;39;20274;-68
2021/05/17 07:30:43;;;;;;;5.47;1.92;;;;;;;;;;3616382;39;20519;-69
2021/05/17 07:33:08;;;;;;;4.68;1.60;;;;;;;;;;3616970;39;20043;-68
2021/05/17 07:35:34;;;;;;;2.72;1.33;;;;;;;;;;3616184;39;20035;-68
2021/05/17 07:37:59;;;;;;;5.22;2.22;;;;;;;;;;3616880;39;20361;-67
2021/05/17 07:40:25;;;;;;;9.60;1.98;;;;;;;;;;3618665;39;20031;-68
2021/05/17 07:42:50;;;;;;;6.00;1.83;;;;;;;;;;3616902;39;20270;-68
2021/05/17 07:45:16;;;;;;;5.18;1.98;;;;;;;;;;3616682;39;20035;-68
2021/05/17 07:47:41;;;;;;;4.75;1.42;;;;;;;;;;3616588;39;20407;-68
2021/05/17 07:50:07;;;;;;;6.38;1.90;;;;;;;;;;3616385;39;20024;-70
2021/05/17 07:52:33;;;;;;;4.85;1.40;;;;;;;;;;3616470;39;20031;-70
2021/05/17 07:54:58;;;;;;;4.70;1.50;;;;;;;;;;3616861;39;20063;-70
2021/05/17 07:57:24;;;;;;;5.28;1.73;;;;;;;;;;3616977;39;20035;-71
2021/05/17 07:59:50;;;;;;;4.03;1.65;;;;;;;;;;3615757;39;20051;-73
2021/05/17 08:02:21;;;;;;;4.72;1.98;;;;;;;;;;3616601;39;20123;-71
2021/05/17 08:04:48;;;;;;;;;;;;;;;;;;3617688;39;20031;-69
2021/05/17 08:07:13;;;;;;;4.40;1.70;;;;;;;;;;3616303;39;19939;-68
2021/05/17 08:09:39;;;;;;;5.63;1.95;;;;;;;;;;3616657;39;20034;-68
2021/05/17 08:12:05;;;;;;;5.93;1.42;;;;;;;;;;3617195;39;20044;-68
2021/05/17 08:14:30;;;;;;;7.93;2.20;;;;;;;;;;3616804;39;20169;-67
2021/05/17 08:16:56;;;;;;;7.68;2.00;;;;;;;;;;3615821;39;20047;-69
2021/05/17 08:19:21;;;;;;;10.85;2.10;;;;;;;;;;3616457;39;20075;-68
2021/05/17 08:21:47;;;;;;;4.18;1.35;;;;;;;;;;3619714;39;20027;-69
2021/05/17 08:24:12;;;;;;;4.18;1.33;;;;;;;;;;3617970;39;20059;-69
2021/05/17 08:26:39;;;;;;;4.32;1.50;;;;;;;;;;3616782;39;20201;-68
2021/05/17 08:29:05;;;;;;;3.05;1.50;;;;;;;;;;3616033;39;20335;-72
2021/05/17 08:31:31;;;;;;;6.50;1.65;;;;;;;;;;3617046;39;20128;-73
2021/05/17 08:33:56;;;;;;;4.45;1.80;;;;;;;;;;3615305;39;20061;-71
2021/05/17 08:36:22;;;;;;;7.13;1.42;;;;;;;;;;3616237;39;20039;-69
2021/05/17 08:38:47;;;;;;;3.88;1.40;;;;;;;;;;3619914;39;20027;-69
2021/05/17 08:41:13;;;;;;;10.15;1.90;;;;;;;;;;3621136;39;20027;-69
2021/05/17 08:43:40;;;;;;;6.93;1.20;;;;;;;;;;3617028;39;20067;-69
2021/05/17 08:46:10;;;;;;;7.10;1.60;;;;;;;;;;3616496;39;20031;-69
2021/05/17 08:48:48;;;;;;;5.70;1.87;;;;;;;;;;3616336;39;20054;-69
2021/05/17 08:51:19;;;;;;;3.97;1.60;;;;;;;;;;3616107;39;20015;-69
2021/05/17 08:53:46;;;;;;;4.70;1.60;;;;;;;;;;3606134;39;20027;-70
2021/05/17 08:56:11;;;;;;;4.30;1.35;;;;;;;;;;3619075;39;20375;-69
2021/05/17 08:58:37;;;;;;;4.30;1.75;;;;;;;;;;3616222;39;20035;-69
2021/05/17 09:01:04;;;;;;;4.82;1.63;;;;;;;;;;3617350;39;20028;-67
2021/05/17 09:03:30;;;;;;;10.05;1.50;;;;;;;;;;3616971;39;20054;-68
2021/05/17 09:05:56;;;;;;;3.50;1.77;;;;;;;;;;3617922;39;20143;-69
2021/05/17 09:08:25;;;;;;;7.07;2.78;;;;;;;;;;3617233;39;20047;-69
2021/05/17 09:10:51;;;;;;;2.97;1.17;;;;;;;;;;3616579;39;20365;-68
2021/05/17 09:13:18;;;;;;;5.60;3.22;;;;;;;;;;3607334;39;20046;-71
2021/05/17 09:15:47;;;;;;;4.85;2.03;;;;;;;;;;3620180;39;20074;-71
2021/05/17 09:18:15;;;;;;;7.53;3.42;;;;;;;;;;3619852;39;20039;-72
2021/05/17 09:20:44;;;;;;;6.50;3.03;;;;;;;;;;3615599;39;20067;-72
2021/05/17 09:23:15;;;;;;;2.05;0.98;;;;;;;;;;3616795;39;20585;-69
2021/05/17 09:26:03;;;;;;;7.25;0.98;;;;;;;;;;3617785;39;20046;-69
2021/05/17 09:28:37;;;;;;;2.90;1.02;;;;;;;;;;3615939;39;20054;-68
2021/05/17 09:31:19;;;;;;;1.90;0.90;;;;;;;;;;3616469;39;20083;-69
2021/05/17 09:33:50;;;;;;;2.65;1.23;;;;;;;;;;3608833;39;20055;-69
2021/05/17 09:36:37;;;;;;;3.90;0.90;;;;;;;;;;3619162;39;20531;-70
2021/05/17 09:39:05;;;;;;;2.80;1.23;;;;;;;;;;3617959;39;20045;-69
2021/05/17 09:41:44;;;;;;;3.97;1.08;;;;;;;;;;3614073;39;20037;-70
2021/05/17 09:44:11;;;;;;;1.88;0.80;;;;;;;;;;3616282;39;20413;-70
2021/05/17 09:47:04;;;;;;;3.15;1.08;;;;;;;;;;3618197;39;20118;-69
2021/05/17 09:49:35;;;;;;;5.93;1.30;;;;;;;;;;3616729;39;20047;-69
2021/05/17 09:52:12;;;;;;;;;;;;;;;;;;3618243;39;20149;-69
2021/05/17 09:54:47;;;;;;;4.97;1.02;;;;;;;;;;3608927;39;20239;-69
2021/05/17 09:57:25;;;;;;;3.22;1.20;;;;;;;;;;3618209;39;20129;-69
2021/05/17 09:59:53;;;;;;;4.40;0.93;;;;;;;;;;3617194;39;20031;-70
2021/05/17 10:02:37;;;;;;;3.38;1.30;;;;;;;;;;3617690;39;20274;-71
2021/05/17 10:05:15;;;;;;;4.70;1.08;;;;;;;;;;3616616;39;20043;-71
2021/05/17 10:07:43;;;;;;;3.40;0.90;;;;;;;;;;3616717;39;20027;-68
2021/05/17 10:10:09;;;;;;;4.45;1.38;;;;;;;;;;3616939;39;20076;-68
2021/05/17 10:12:34;;;;;;;3.92;1.63;;;;;;;;;;3619022;39;20070;-67
2021/05/17 10:15:02;;;;;;;5.35;2.30;;;;;;;;;;3615371;39;20305;-70
2021/05/17 10:17:27;;;;;;;3.75;1.48;;;;;;;;;;3618674;39;20582;-68
2021/05/17 10:19:53;;;;;;;4.18;1.50;;;;;;;;;;3619580;39;20039;-68
2021/05/17 10:22:18;;;;;;;3.05;1.40;;;;;;;;;;3608036;39;20051;-68
2021/05/17 10:24:44;;;;;;;3.75;1.80;;;;;;;;;;3621130;39;20039;-68
2021/05/17 10:27:10;;;;;;;4.05;1.73;;;;;;;;;;3619923;39;20039;-70
2021/05/17 10:29:37;;;;;;;3.53;1.17;;;;;;;;;;3618671;39;20489;-69
2021/05/17 10:32:05;;;;;;;3.92;1.10;;;;;;;;;;3617679;39;20116;-69
2021/05/17 10:34:31;;;;;;;3.08;0.85;;;;;;;;;;3620314;39;20031;-70
2021/05/17 10:37:02;;;;;;;2.63;0.80;;;;;;;;;;3619334;39;20452;-66
2021/05/17 10:39:31;;;;;;;0.93;0.50;;;;;;;;;;3616644;39;20107;-69
2021/05/17 10:48:20;;;;;;;2.53;0.88;;;;;;;;;;3616354;39;20041;-70
2021/05/17 10:50:51;;;;;;;2.22;0.73;;;;;;;;;;3608357;39;20039;-69
2021/05/17 10:53:35;;;;;;;;;;;;;;;;;;3619984;39;20099;-68
2021/05/17 10:56:00;;;;;;;3.22;0.85;;;;;;;;;;3607062;39;20360;-71
2021/05/17 11:02:11;;;;;;;3.55;1.17;;;;;;;;;;3616267;39;20135;-71
2021/05/17 11:04:59;;;;;;;3.50;0.73;;;;;;;;;;3619927;39;20384;-72
2021/05/17 11:07:31;;;;;;;1.27;0.60;;;;;;;;;;3616962;39;20035;-73
2021/05/17 11:09:59;;;;;;;3.13;1.67;;;;;;;;;;3619623;39;20031;-70
2021/05/17 11:12:28;;;;;;;2.75;0.65;;;;;;;;;;3619091;39;20046;-69
2021/05/17 11:15:13;;;;;;;3.03;1.10;;;;;;;;;;3609175;39;20091;-72
2021/05/17 11:18:06;;;;;;;5.05;0.63;;;;;;;;;;3618278;39;20031;-68
2021/05/17 11:20:40;;;;;;;1.00;0.50;;;;;;;;;;3606849;39;20157;-72
2021/05/17 11:23:27;;;;;;;1.25;0.60;;;;;;;;;;3618822;39;20040;-72
2021/05/17 11:26:06;;;;;;;3.58;0.82;;;;;;;;;;3618160;39;20035;-70
2021/05/17 11:28:34;;;;;;;1.85;0.88;;;;;;;;;;3618374;39;20031;-69
2021/05/17 11:31:18;;;;;;;4.78;0.77;;;;;;;;;;3619099;39;20045;-70
2021/05/17 11:33:48;;;;;;;1.85;0.70;;;;;;;;;;3618690;39;20051;-72
2021/05/17 11:36:18;;;;;;;2.10;0.80;;;;;;;;;;3614698;39;20035;-69
2021/05/17 11:39:03;;;;;;;1.38;0.63;;;;;;;;;;3607227;39;20075;-73
2021/05/17 11:41:31;;;;;;;3.03;1.00;;;;;;;;;;3616100;39;20032;-71
2021/05/17 11:44:00;;;;;;;1.60;0.68;;;;;;;;;;3619465;39;20033;-72
2021/05/17 11:46:26;;;;;;;3.00;0.90;;;;;;;;;;3617970;39;20031;-72
2021/05/17 11:48:52;;;;;;;1.35;0.68;;;;;;;;;;3618121;39;20047;-73
2021/05/17 11:51:23;;;;;;;2.35;0.70;;;;;;;;;;3617240;39;20123;-73
2021/05/17 11:53:49;;;;;;;2.13;0.60;;;;;;;;;;3616819;39;20033;-67
2021/05/17 11:56:14;;;;;;;3.58;0.98;;;;;;;;;;3617118;39;20028;-71
2021/05/17 11:58:40;;;;;;;1.77;0.70;;;;;;;;;;3618383;39;20046;-69
2021/05/17 12:01:16;;;;;;;2.30;0.80;;;;;;;;;;3617730;39;20023;-71
2021/05/17 12:03:42;;;;;;;0.70;0.30;;;;;;;;;;3618835;39;20057;-72
2021/05/17 12:06:07;;;;;;;1.40;0.70;;;;;;;;;;3619348;39;20448;-71
2021/05/17 12:08:33;;;;;;;1.30;0.68;;;;;;;;;;3608397;39;20079;-73
2021/05/17 12:10:59;;;;;;;1.92;0.60;;;;;;;;;;3615034;39;20312;-71
2021/05/17 12:13:25;;;;;;;1.33;0.57;;;;;;;;;;3616240;39;20035;-71
2021/05/17 12:15:50;;;;;;;1.30;0.68;;;;;;;;;;3618243;39;20060;-71
2021/05/17 12:18:16;;;;;;;4.28;0.80;;;;;;;;;;3617209;39;20051;-69
2021/05/17 12:20:42;;;;;;;2.13;0.80;;;;;;;;;;3616464;39;20047;-69
2021/05/17 12:23:07;;;;;;;1.90;0.65;;;;;;;;;;3616805;39;20040;-70
2021/05/17 12:25:33;;;;;;;2.45;0.88;;;;;;;;;;3618584;39;20444;-70
2021/05/17 12:28:01;;;;;;;2.80;0.70;;;;;;;;;;3616100;39;20045;-69
2021/05/17 12:30:28;;;;;;;2.60;0.90;;;;;;;;;;3616992;39;20055;-71
2021/05/17 12:33:01;;;;;;;4.07;0.50;;;;;;;;;;3607656;39;20031;-70
2021/05/17 12:35:34;;;;;;;1.30;0.40;;;;;;;;;;3616750;39;20045;-71
2021/05/17 12:38:02;;;;;;;2.58;1.10;;;;;;;;;;3618314;39;20101;-72
2021/05/17 12:40:37;;;;;;;2.90;0.80;;;;;;;;;;3617703;39;20051;-69
2021/05/17 12:43:04;;;;;;;2.92;0.82;;;;;;;;;;3618039;39;20139;-70
2021/05/17 12:45:30;;;;;;;2.85;0.80;;;;;;;;;;3615757;39;20031;-71
2021/05/17 12:47:55;;;;;;;2.92;0.80;;;;;;;;;;3618446;39;20292;-71
2021/05/17 12:50:26;;;;;;;1.50;0.60;;;;;;;;;;3617411;39;20040;-76
2021/05/17 12:53:24;;;;;;;1.35;0.50;;;;;;;;;;3615789;39;20046;-71
2021/05/17 12:55:54;;;;;;;6.22;0.57;;;;;;;;;;3609273;39;20043;-70
2021/05/17 12:58:37;;;;;;;2.65;0.90;;;;;;;;;;3618267;39;20131;-74
2021/05/17 13:01:15;;;;;;;1.90;0.60;;;;;;;;;;3617665;39;20055;-73
2021/05/17 13:03:42;;;;;;;1.67;0.70;;;;;;;;;;3619814;39;20041;-72
2021/05/17 13:06:22;;;;;;;3.00;0.93;;;;;;;;;;3621601;39;20041;-74
2021/05/17 13:08:50;;;;;;;4.53;1.20;;;;;;;;;;3609071;39;20045;-73
2021/05/17 13:11:21;;;;;;;8.88;0.93;;;;;;;;;;3617550;39;20445;-76
2021/05/17 13:14:21;;;;;;;2.85;0.88;;;;;;;;;;3619141;39;20035;-74
2021/05/17 13:16:49;;;;;;;2.25;0.50;;;;;;;;;;3618389;39;20023;-75
2021/05/17 13:19:34;;;;;;;3.90;0.93;;;;;;;;;;3607027;39;20454;-77
2021/05/17 13:32:26;;;;;;;3.05;0.65;;;;;;;;;;3615740;39;20031;-70
2021/05/17 13:34:52;;;;;;;2.78;0.82;;;;;;;;;;3617643;39;20389;-70
2021/05/17 13:37:17;;;;;;;1.88;0.55;;;;;;;;;;3613850;39;20294;-71
2021/05/17 13:39:42;;;;;;;1.40;0.40;;;;;;;;;;3614813;39;20035;-72
2021/05/17 13:42:08;;;;;;;2.13;0.70;;;;;;;;;;3615754;39;20036;-69
2021/05/17 13:44:33;;;;;;;4.32;0.50;;;;;;;;;;3615490;39;20043;-71
2021/05/17 13:46:59;;;;;;;1.80;0.60;;;;;;;;;;3615331;39;20355;-70
2021/05/17 13:49:24;;;;;;;2.10;0.80;;;;;;;;;;3618772;39;20428;-71
2021/05/17 13:51:50;;;;;;;1.52;0.60;;;;;;;;;;3617085;39;20505;-70
2021/05/17 13:54:18;;;;;;;2.75;0.65;;;;;;;;;;3616929;39;20055;-70
2021/05/17 13:56:44;;;;;;;1.00;0.45;;;;;;;;;;3617699;39;20043;-73
2021/05/17 13:59:09;;;;;;;3.88;0.68;;;;;;;;;;3616962;39;20370;-71
2021/05/17 14:01:35;;;;;;;1.58;0.55;;;;;;;;;;3615882;39;20096;-70
2021/05/17 14:04:00;;;;;;;1.13;0.45;;;;;;;;;;3616249;39;20095;-70
2021/05/17 14:06:25;;;;;;;1.67;0.55;;;;;;;;;;3615931;39;20381;-70
2021/05/17 14:08:51;;;;;;;4.75;1.30;;;;;;;;;;3617409;39;20052;-69
2021/05/17 14:11:16;;;;;;;5.00;0.88;;;;;;;;;;3617341;39;20371;-69
2021/05/17 14:13:42;;;;;;;3.13;0.65;;;;;;;;;;3618441;39;20036;-69
2021/05/17 14:16:07;;;;;;;1.15;0.60;;;;;;;;;;3618007;39;20371;-69
2021/05/17 14:18:32;;;;;;;1.27;0.50;;;;;;;;;;3607972;39;20038;-69
2021/05/17 14:20:58;;;;;;;7.03;0.65;;;;;;;;;;3617852;39;20042;-69
2021/05/17 14:23:23;;;;;;;1.42;0.60;;;;;;;;;;3617936;39;20043;-69
2021/05/17 14:25:49;;;;;;;2.63;0.95;;;;;;;;;;3608164;39;20069;-71
2021/05/17 14:28:14;;;;;;;1.67;0.63;;;;;;;;;;3618188;39;20123;-70
2021/05/17 14:30:40;;;;;;;4.40;1.00;;;;;;;;;;3616264;39;20060;-70
2021/05/17 14:33:10;;;;;;;1.35;0.63;;;;;;;;;;3619469;39;20034;-69
2021/05/17 14:35:36;;;;;;;2.83;0.75;;;;;;;;;;3619078;39;20039;-70
2021/05/17 14:38:01;;;;;;;3.60;0.68;;;;;;;;;;3617276;39;20039;-69
2021/05/17 14:40:27;;;;;;;2.17;0.77;;;;;;;;;;3617767;39;20042;-73
2021/05/17 14:42:52;;;;;;;2.58;0.75;;;;;;;;;;3619472;39;20285;-70
2021/05/17 14:45:18;;;;;;;1.95;0.75;;;;;;;;;;3620837;39;20039;-69
2021/05/17 14:47:44;;;;;;;3.70;0.65;;;;;;;;;;3617824;39;20037;-69
2021/05/17 14:50:11;;;;;;;3.30;0.85;;;;;;;;;;3618123;39;20398;-68
2021/05/17 14:52:38;;;;;;;3.00;0.75;;;;;;;;;;3617417;39;20047;-68
2021/05/17 14:55:08;;;;;;;2.22;1.13;;;;;;;;;;3608727;39;20359;-69
2021/05/17 14:57:34;;;;;;;2.47;0.80;;;;;;;;;;3616760;39;20055;-69
2021/05/17 14:59:59;;;;;;;3.63;1.05;;;;;;;;;;3616240;39;20084;-68
2021/05/17 15:02:26;;;;;;;4.43;0.90;;;;;;;;;;3619517;39;20050;-69
2021/05/17 15:04:52;;;;;;;2.17;0.82;;;;;;;;;;3619566;39;20251;-68
2021/05/17 15:07:18;;;;;;;2.20;0.70;;;;;;;;;;3619076;39;20031;-68
2021/05/17 15:09:43;;;;;;;2.33;0.82;;;;;;;;;;3620191;39;20404;-68
2021/05/17 15:12:09;;;;;;;7.72;0.90;;;;;;;;;;3614251;39;20031;-69
2021/05/17 15:14:34;;;;;;;5.47;2.03;;;;;;;;;;3598835;39;20075;-69
2021/05/17 15:17:00;;;;;;;4.30;1.52;;;;;;;;;;3617440;39;20909;-69
2021/05/17 15:19:25;;;;;;;2.63;0.90;;;;;;;;;;3616493;39;20042;-69
2021/05/17 15:21:51;;;;;;;2.90;0.90;;;;;;;;;;3619187;39;20031;-69
2021/05/17 15:24:16;;;;;;;3.90;0.70;;;;;;;;;;3617990;39;20031;-70
2021/05/17 15:26:42;;;;;;;3.05;0.57;;;;;;;;;;3617634;39;20031;-70